Time;durP1;ratioP1;P1;durP2;ratioP2;P2;SDS_P1;SDS_P2;PMS_P1;PMS_P2;Temp;Humidity;BMP_temperature;BMP_pressure;BME280_temperature;BME280_humidity;BME280_pressure;Samples;Min_cycle;Max_cycle;Signal;HPM_P1;HPM_P2
2021/09/28 00:00:00;;;;;;;;;;;17.60;92.90;17.90;100359.00;;;;347475;28;83446;-92
2021/09/28 00:00:12;;;;;;;;;;;17.60;92.90;17.80;100350.00;;;;346741;28;92785;-92
2021/09/28 00:00:24;;;;;;;;;;;17.60;93.00;17.80;100356.00;;;;344602;28;83489;-92
2021/09/28 00:00:36;;;;;;;;;;;17.60;92.90;17.90;100347.00;;;;345496;28;88893;-91
2021/09/28 00:00:48;;;;;;;;;;;17.60;93.00;17.90;100350.00;;;;345988;28;83311;-92
2021/09/28 00:01:00;;;;;;;;;;;17.60;93.00;17.90;100348.00;;;;344328;28;90576;-92
2021/09/28 00:01:15;;;;;;;;;;;17.60;92.90;18.00;100350.00;;;;346417;28;82637;-93
2021/09/28 00:01:27;;;;;;;;;;;17.60;92.90;18.00;100352.00;;;;347070;28;90267;-92
2021/09/28 00:01:39;;;;;;;;;;;17.60;93.00;17.90;100344.00;;;;347449;28;83358;-92
2021/09/28 00:01:51;;;;;;;;;;;17.60;93.00;17.90;100352.00;;;;346900;28;91525;-92
2021/09/28 00:02:04;;;;;;;;;;;17.60;92.90;17.90;100359.00;;;;345925;28;83496;-92
2021/09/28 00:02:16;;;;;;;;;;;17.60;93.00;18.00;100348.00;;;;346986;28;92236;-92
2021/09/28 00:02:28;;;;;;;;;;;17.60;93.00;17.90;100351.00;;;;348836;27;82372;-92
2021/09/28 00:02:40;;;;;;;;;;;17.60;93.00;17.80;100349.00;;;;345645;28;90172;-92
2021/09/28 00:02:52;;;;;;;;;;;17.60;93.10;17.90;100353.00;;;;347361;28;83435;-92
2021/09/28 00:03:05;;;;;;;;;;;17.60;93.00;17.90;100353.00;;;;348387;27;91082;-92
2021/09/28 00:03:17;;;;;;;;;;;17.70;93.00;17.90;100351.00;;;;344587;28;83950;-92
2021/09/28 00:03:29;;;;;;;;;;;17.70;93.10;17.90;100351.00;;;;347197;27;91695;-92
2021/09/28 00:03:41;;;;;;;;;;;17.70;93.10;17.90;100351.00;;;;346048;28;82482;-92
2021/09/28 00:03:53;;;;;;;;;;;17.70;93.10;17.90;100350.00;;;;345576;28;90880;-92
2021/09/28 00:04:04;;;;;;;;;;;17.70;93.10;17.90;100353.00;;;;348578;27;83471;-91
2021/09/28 00:04:16;;;;;;;;;;;17.70;93.10;17.90;100350.00;;;;344159;28;91862;-91
2021/09/28 00:04:28;;;;;;;;;;;17.60;93.00;17.90;100353.00;;;;347031;28;83608;-92
2021/09/28 00:04:57;;;;;;;;;;;17.70;93.00;17.90;100353.00;;;;346734;28;90194;-92
2021/09/28 00:05:09;;;;;;;;;;;17.70;93.00;17.90;100351.00;;;;343277;28;83463;-91
2021/09/28 00:05:21;;;;;;;;;;;17.60;92.90;18.00;100350.00;;;;344247;28;91554;-92
2021/09/28 00:05:33;;;;;;;;;;;17.60;93.00;17.80;100353.00;;;;345887;28;82582;-93
2021/09/28 00:05:45;;;;;;;;;;;17.70;92.90;17.80;100354.00;;;;348696;27;91742;-93
2021/09/28 00:05:57;;;;;;;;;;;17.60;93.00;17.80;100352.00;;;;350156;27;83474;-93
2021/09/28 00:06:09;;;;;;;;;;;17.60;93.00;17.80;100350.00;;;;348170;27;90810;-92
2021/09/28 00:06:21;;;;;;;;;;;17.60;93.00;17.80;100355.00;;;;347494;28;83387;-92
2021/09/28 00:06:33;;;;;;;;;;;17.60;93.00;17.80;100340.00;;;;346950;28;92545;-92
2021/09/28 00:06:44;;;;;;;;;;;17.60;93.00;17.80;100351.00;;;;346167;28;82500;-92
2021/09/28 00:06:56;;;;;;;;;;;17.70;93.00;17.90;100351.00;;;;345557;28;92120;-92
2021/09/28 00:07:08;;;;;;;;;;;17.60;93.00;17.90;100361.00;;;;346050;28;83405;-93
2021/09/28 00:07:20;;;;;;;;;;;17.60;93.00;17.90;100352.00;;;;345573;28;91577;-92
2021/09/28 00:07:32;;;;;;;;;;;17.60;93.00;17.90;100357.00;;;;346132;28;83390;-92
2021/09/28 00:07:43;;;;;;;;;;;17.60;93.10;17.70;100353.00;;;;344121;28;90386;-93
2021/09/28 00:07:55;;;;;;;;;;;17.60;93.10;17.80;100350.00;;;;346031;28;82513;-91
2021/09/28 00:08:08;;;;;;;;;;;17.60;93.10;17.80;100357.00;;;;347074;28;91470;-92
2021/09/28 00:08:19;;;;;;;;;;;17.60;93.10;17.80;100357.00;;;;347255;28;83512;-92
2021/09/28 00:08:31;;;;;;;;;;;17.60;93.10;17.70;100360.00;;;;347784;27;91837;-92
2021/09/28 00:08:43;;;;;;;;;;;17.60;93.00;17.70;100360.00;;;;347379;28;83382;-92
2021/09/28 00:08:55;;;;;;;;;;;17.60;93.10;17.70;100354.00;;;;345670;28;90633;-92
2021/09/28 00:09:06;;;;;;;;;;;17.60;93.10;17.70;100360.00;;;;346012;28;83334;-91
2021/09/28 00:09:18;;;;;;;;;;;17.60;93.00;17.70;100353.00;;;;344300;28;90107;-91
2021/09/28 00:09:30;;;;;;;;;;;17.50;93.00;17.70;100357.00;;;;346468;28;83378;-93
2021/09/28 00:09:42;;;;;;;;;;;17.60;93.00;17.80;100348.00;;;;345564;28;91439;-92
2021/09/28 00:09:54;;;;;;;;;;;17.50;93.10;17.80;100353.00;;;;346051;28;83429;-92
2021/09/28 00:10:06;;;;;;;;;;;17.60;93.20;17.70;100351.00;;;;345570;28;91505;-91
2021/09/28 00:10:18;;;;;;;;;;;17.60;93.30;17.60;100350.00;;;;347319;28;83420;-92
2021/09/28 00:10:31;;;;;;;;;;;17.50;93.40;17.70;100357.00;;;;348260;27;92732;-92
2021/09/28 00:10:43;;;;;;;;;;;17.50;93.30;17.80;100356.00;;;;348782;27;82519;-92
2021/09/28 00:10:55;;;;;;;;;;;17.50;93.20;17.80;100359.00;;;;347895;27;90221;-93
2021/09/28 00:11:07;;;;;;;;;;;17.60;93.20;17.80;100354.00;;;;346078;28;82661;-92
2021/09/28 00:11:19;;;;;;;;;;;17.50;93.20;17.70;100361.00;;;;346865;28;90986;-92
2021/09/28 00:11:31;;;;;;;;;;;17.50;93.20;17.80;100355.00;;;;347548;28;83357;-92
2021/09/28 00:11:43;;;;;;;;;;;17.60;93.30;17.70;100352.00;;;;345726;28;87718;-92
2021/09/28 00:11:54;;;;;;;;;;;17.50;93.30;17.60;100341.00;;;;346085;28;82545;-92
2021/09/28 00:12:07;;;;;;;;;;;17.50;93.30;17.60;100350.00;;;;346551;28;90543;-93
2021/09/28 00:12:19;;;;;;;;;;;17.50;93.30;17.60;100353.00;;;;347513;28;82433;-93
2021/09/28 00:12:31;;;;;;;;;;;17.50;93.30;17.60;100355.00;;;;349407;27;91427;-91
2021/09/28 00:12:43;;;;;;;;;;;17.50;93.30;17.70;100356.00;;;;348976;27;83288;-92
2021/09/28 00:12:54;;;;;;;;;;;17.50;93.30;17.70;100354.00;;;;346928;28;91394;-92
2021/09/28 00:13:06;;;;;;;;;;;17.50;93.20;17.70;100354.00;;;;346023;28;83286;-91
2021/09/28 00:13:19;;;;;;;;;;;17.50;93.40;17.60;100353.00;;;;348363;27;90603;-92
2021/09/28 00:13:31;;;;;;;;;;;17.50;93.40;17.60;100352.00;;;;347351;28;83451;-92
2021/09/28 00:13:43;;;;;;;;;;;17.50;93.40;17.70;100353.00;;;;345325;28;90668;-92
2021/09/28 00:13:55;;;;;;;;;;;17.40;93.30;17.80;100352.00;;;;346984;28;84044;-92
2021/09/28 00:14:07;;;;;;;;;;;17.50;93.40;17.80;100353.00;;;;348380;27;92054;-93
2021/09/28 00:14:19;;;;;;;;;;;17.50;93.40;17.70;100355.00;;;;348725;27;83394;-92
2021/09/28 00:14:30;;;;;;;;;;;17.50;93.40;17.70;100356.00;;;;346503;28;91342;-91
2021/09/28 00:14:42;;;;;;;;;;;17.50;93.40;17.70;100357.00;;;;346102;28;83456;-92
2021/09/28 00:14:54;;;;;;;;;;;17.50;93.40;17.70;100357.00;;;;345543;28;91261;-92
2021/09/28 00:15:06;;;;;;;;;;;17.50;93.50;17.70;100354.00;;;;344630;28;82597;-93
2021/09/28 00:15:18;;;;;;;;;;;17.50;93.50;17.60;100353.00;;;;342955;28;90906;-92
2021/09/28 00:15:30;;;;;;;;;;;17.50;93.50;17.70;100353.00;;;;346084;28;82427;-93
2021/09/28 00:15:42;;;;;;;;;;;17.40;93.50;17.70;100359.00;;;;345574;28;90824;-92
2021/09/28 00:15:54;;;;;;;;;;;17.50;93.50;17.70;100357.00;;;;347400;28;83481;-93
2021/09/28 00:16:06;;;;;;;;;;;17.40;93.40;17.80;100356.00;;;;348353;27;91539;-92
2021/09/28 00:16:19;;;;;;;;;;;17.50;93.50;17.70;100344.00;;;;346045;28;83404;-93
2021/09/28 00:16:31;;;;;;;;;;;17.50;93.60;17.80;100345.00;;;;343856;28;91488;-92
2021/09/28 00:16:43;;;;;;;;;;;17.50;93.50;17.80;100355.00;;;;347427;28;83394;-92
2021/09/28 00:16:55;;;;;;;;;;;17.50;93.50;17.80;100348.00;;;;345612;28;90946;-92
2021/09/28 00:17:07;;;;;;;;;;;17.50;93.50;17.80;100356.00;;;;347261;28;82691;-92
2021/09/28 00:17:19;;;;;;;;;;;17.50;93.50;17.80;100356.00;;;;346922;28;90209;-91
2021/09/28 00:17:31;;;;;;;;;;;17.50;93.60;17.80;100358.00;;;;349375;27;83658;-92
2021/09/28 00:17:42;;;;;;;;;;;17.50;93.50;17.80;100350.00;;;;347020;28;91176;-93
2021/09/28 00:17:54;;;;;;;;;;;17.50;93.50;17.80;100356.00;;;;347483;28;82578;-93
2021/09/28 00:18:06;;;;;;;;;;;17.50;93.40;17.70;100364.00;;;;344123;28;91520;-92
2021/09/28 00:18:18;;;;;;;;;;;17.50;93.40;17.70;100354.00;;;;345941;28;82552;-92
2021/09/28 00:18:30;;;;;;;;;;;17.50;93.40;17.70;100352.00;;;;348002;27;91455;-93
2021/09/28 00:18:41;;;;;;;;;;;17.50;93.40;17.70;100349.00;;;;347549;27;83370;-92
2021/09/28 00:18:53;;;;;;;;;;;17.50;93.50;17.70;100356.00;;;;345650;28;90141;-91
2021/09/28 00:19:05;;;;;;;;;;;17.50;93.50;17.80;100353.00;;;;347461;28;82438;-92
2021/09/28 00:19:17;;;;;;;;;;;17.50;93.50;17.70;100356.00;;;;345461;28;90401;-92
2021/09/28 00:19:29;;;;;;;;;;;17.50;93.50;17.70;100353.00;;;;347175;28;83564;-92
2021/09/28 00:19:41;;;;;;;;;;;17.50;93.40;17.80;100356.00;;;;344217;28;91546;-92
2021/09/28 00:19:52;;;;;;;;;;;17.50;93.40;17.60;100351.00;;;;346060;28;83354;-92
2021/09/28 00:20:05;;;;;;;;;;;17.50;93.40;17.50;100352.00;;;;345567;28;90038;-92
2021/09/28 00:20:16;;;;;;;;;;;17.50;93.50;17.50;100354.00;;;;346017;28;83231;-92
2021/09/28 00:20:29;;;;;;;;;;;17.50;93.60;17.50;100359.00;;;;343279;28;92354;-91
2021/09/28 00:20:41;;;;;;;;;;;17.50;93.60;17.60;100350.00;;;;346056;28;83406;-93
2021/09/28 00:20:53;;;;;;;;;;;17.40;93.50;17.70;100356.00;;;;344129;28;89515;-91
2021/09/28 00:21:05;;;;;;;;;;;17.50;93.90;17.70;100360.00;;;;344662;28;82319;-92
2021/09/28 00:21:16;;;;;;;;;;;17.50;93.60;17.50;100356.00;;;;348387;27;91575;-92
2021/09/28 00:21:28;;;;;;;;;;;17.50;93.90;17.40;100361.00;;;;347500;28;83265;-91
2021/09/28 00:21:40;;;;;;;;;;;17.40;93.80;17.60;100349.00;;;;347009;28;90613;-91
2021/09/28 00:21:52;;;;;;;;;;;17.40;93.70;17.60;100346.00;;;;347361;28;83398;-92
2021/09/28 00:22:04;;;;;;;;;;;17.40;93.70;17.60;100355.00;;;;345423;28;90286;-92
2021/09/28 00:22:16;;;;;;;;;;;17.40;93.80;17.50;100363.00;;;;348871;27;83324;-92
2021/09/28 00:22:28;;;;;;;;;;;17.40;93.80;17.40;100358.00;;;;348199;27;92530;-92
2021/09/28 00:22:39;;;;;;;;;;;17.40;93.70;17.50;100352.00;;;;347382;28;83357;-93
2021/09/28 00:22:54;;;;;;;;;;;17.40;93.70;17.60;100348.00;;;;347001;28;91759;-92
2021/09/28 00:23:06;;;;;;;;;;;17.40;93.70;17.70;100357.00;;;;344665;28;82540;-92
2021/09/28 00:23:18;;;;;;;;;;;17.40;93.70;17.60;100352.00;;;;345600;28;90114;-92
2021/09/28 00:23:30;;;;;;;;;;;17.40;93.80;17.60;100352.00;;;;346000;28;83417;-92
2021/09/28 00:23:42;;;;;;;;;;;17.40;93.70;17.60;100350.00;;;;346823;28;91499;-92
2021/09/28 00:23:54;;;;;;;;;;;17.40;93.70;17.60;100353.00;;;;348850;27;83335;-92
2021/09/28 00:24:06;;;;;;;;;;;17.40;93.70;17.60;100355.00;;;;345650;28;91198;-92
2021/09/28 00:24:17;;;;;;;;;;;17.40;93.70;17.60;100364.00;;;;338923;28;82578;-92
2021/09/28 00:24:29;;;;;;;;;;;17.40;93.70;17.50;100357.00;;;;338447;28;91531;-92
2021/09/28 00:24:42;;;;;;;;;;;17.40;93.70;17.40;100352.00;;;;340358;28;83338;-92
2021/09/28 00:24:53;;;;;;;;;;;17.40;93.80;17.50;100354.00;;;;339870;28;91836;-92
2021/09/28 00:25:06;;;;;;;;;;;17.40;93.80;17.60;100355.00;;;;339058;28;83295;-92
2021/09/28 00:25:18;;;;;;;;;;;17.30;93.80;17.60;100356.00;;;;338585;28;91098;-92
2021/09/28 00:25:30;;;;;;;;;;;17.40;94.10;17.60;100359.00;;;;340412;28;82348;-91
2021/09/28 00:25:42;;;;;;;;;;;17.40;93.90;17.40;100359.00;;;;340013;28;90186;-92
2021/09/28 00:25:54;;;;;;;;;;;17.30;93.90;17.40;100353.00;;;;346003;28;82538;-92
2021/09/28 00:26:06;;;;;;;;;;;17.30;93.90;17.50;100354.00;;;;340073;28;90391;-92
2021/09/28 00:26:18;;;;;;;;;;;17.30;93.90;17.50;100355.00;;;;340327;28;83366;-92
2021/09/28 00:26:29;;;;;;;;;;;17.30;94.00;17.40;100358.00;;;;338335;28;92413;-91
2021/09/28 00:26:41;;;;;;;;;;;17.30;94.00;17.20;100354.00;;;;338915;28;82549;-91
2021/09/28 00:26:54;;;;;;;;;;;17.30;94.00;17.30;100352.00;;;;341470;28;90393;-92
2021/09/28 00:27:05;;;;;;;;;;;17.30;94.20;17.50;100347.00;;;;338805;28;83362;-91
2021/09/28 00:27:17;;;;;;;;;;;17.30;94.00;17.50;100351.00;;;;340017;28;92125;-92
2021/09/28 00:27:29;;;;;;;;;;;17.30;94.00;17.50;100346.00;;;;340546;28;83280;-92
2021/09/28 00:27:44;;;;;;;;;;;17.30;94.00;17.50;100346.00;;;;344216;28;90593;-92
2021/09/28 00:27:56;;;;;;;;;;;17.30;94.00;17.40;100348.00;;;;345943;28;82597;-92
2021/09/28 00:28:07;;;;;;;;;;;17.30;94.00;17.50;100348.00;;;;344337;28;90629;-92
2021/09/28 00:28:19;;;;;;;;;;;17.30;94.00;17.40;100342.00;;;;348874;27;83324;-92
2021/09/28 00:28:31;;;;;;;;;;;17.30;94.00;17.30;100348.00;;;;346658;27;93090;-92
2021/09/28 00:28:43;;;;;;;;;;;17.30;94.00;17.40;100351.00;;;;341714;28;83483;-92
2021/09/28 00:28:55;;;;;;;;;;;17.30;94.00;17.50;100345.00;;;;338758;28;88770;-92
2021/09/28 00:29:06;;;;;;;;;;;17.30;94.00;17.50;100351.00;;;;339033;28;83438;-91
2021/09/28 00:29:18;;;;;;;;;;;17.30;94.00;17.50;100342.00;;;;337261;28;90198;-92
2021/09/28 00:29:30;;;;;;;;;;;17.30;94.00;17.50;100347.00;;;;341811;28;82751;-93
2021/09/28 00:29:42;;;;;;;;;;;17.30;94.00;17.50;100346.00;;;;345595;28;90301;-92
2021/09/28 00:29:53;;;;;;;;;;;17.30;93.90;17.50;100345.00;;;;346021;28;83727;-92
2021/09/28 00:30:06;;;;;;;;;;;17.30;93.90;17.40;100346.00;;;;338792;28;87972;-92
2021/09/28 00:30:18;;;;;;;;;;;17.30;93.90;17.50;100349.00;;;;337700;28;83328;-92
2021/09/28 00:30:30;;;;;;;;;;;17.30;93.90;17.50;100351.00;;;;335795;28;92493;-92
2021/09/28 00:30:43;;;;;;;;;;;17.30;93.80;17.40;100343.00;;;;337758;28;83426;-92
2021/09/28 00:30:55;;;;;;;;;;;17.30;93.90;17.40;100350.00;;;;341282;28;92831;-92
2021/09/28 00:31:07;;;;;;;;;;;17.30;94.00;17.40;100340.00;;;;341713;27;82369;-92
2021/09/28 00:31:18;;;;;;;;;;;17.30;94.00;17.40;100345.00;;;;337312;28;91394;-92
2021/09/28 00:31:30;;;;;;;;;;;17.30;94.30;17.40;100350.00;;;;340476;28;83359;-92
2021/09/28 00:31:42;;;;;;;;;;;17.30;94.00;17.50;100351.00;;;;338605;28;91473;-92
2021/09/28 00:31:54;;;;;;;;;;;17.30;94.00;17.50;100345.00;;;;337759;28;83335;-92
2021/09/28 00:32:06;;;;;;;;;;;17.30;93.90;17.50;100348.00;;;;336019;28;90532;-93
2021/09/28 00:32:18;;;;;;;;;;;17.30;94.20;17.50;100348.00;;;;339370;28;83375;-91
2021/09/28 00:32:31;;;;;;;;;;;17.30;94.00;17.40;100346.00;;;;339046;28;92193;-92
2021/09/28 00:32:42;;;;;;;;;;;17.30;93.90;17.30;100348.00;;;;340984;28;83408;-92
2021/09/28 00:32:54;;;;;;;;;;;17.30;93.90;17.40;100348.00;;;;345951;28;90348;-92
2021/09/28 00:33:06;;;;;;;;;;;17.30;93.90;17.40;100354.00;;;;338052;28;82495;-92
2021/09/28 00:33:18;;;;;;;;;;;17.30;93.80;17.40;100351.00;;;;337611;28;90420;-91
2021/09/28 00:33:39;;;;;;;;;;;17.30;93.80;17.40;100351.00;;;;338008;28;83548;-91
2021/09/28 00:33:51;;;;;;;;;;;17.30;93.90;17.50;100353.00;;;;338799;28;91282;-92
2021/09/28 00:34:03;;;;;;;;;;;17.30;93.90;17.50;100352.00;;;;341479;28;83377;-91
2021/09/28 00:34:15;;;;;;;;;;;17.30;94.00;17.50;100345.00;;;;348265;27;89459;-92
2021/09/28 00:34:27;;;;;;;;;;;17.30;94.00;17.50;100346.00;;;;347594;28;83478;-92
2021/09/28 00:34:40;;;;;;;;;;;17.30;93.90;17.40;100347.00;;;;344253;28;91517;-92
2021/09/28 00:34:52;;;;;;;;;;;17.30;93.80;17.40;100352.00;;;;340525;28;83538;-92
2021/09/28 00:35:04;;;;;;;;;;;17.30;93.80;17.40;100344.00;;;;341144;28;89711;-92
2021/09/28 00:35:16;;;;;;;;;;;17.30;93.90;17.30;100350.00;;;;340475;28;82398;-91
2021/09/28 00:35:28;;;;;;;;;;;17.30;93.90;17.30;100345.00;;;;340337;28;91379;-92
2021/09/28 00:35:39;;;;;;;;;;;17.30;94.10;17.30;100351.00;;;;339852;28;83358;-93
2021/09/28 00:35:51;;;;;;;;;;;17.20;94.00;17.30;100348.00;;;;340003;28;90627;-92
2021/09/28 00:36:03;;;;;;;;;;;17.20;93.90;17.20;100341.00;;;;338904;28;83485;-91
2021/09/28 00:36:15;;;;;;;;;;;17.20;93.90;17.30;100346.00;;;;340088;28;91505;-92
2021/09/28 00:36:27;;;;;;;;;;;17.20;93.80;17.40;100342.00;;;;339179;28;83483;-92
2021/09/28 00:36:39;;;;;;;;;;;17.20;93.80;17.40;100347.00;;;;340059;28;90219;-92
2021/09/28 00:36:50;;;;;;;;;;;17.20;93.90;17.40;100344.00;;;;339235;28;82515;-92
2021/09/28 00:37:02;;;;;;;;;;;17.20;93.90;17.40;100343.00;;;;337411;28;92317;-91
2021/09/28 00:37:14;;;;;;;;;;;17.20;93.90;17.40;100347.00;;;;344209;28;83576;-91
2021/09/28 00:37:26;;;;;;;;;;;17.20;93.80;17.50;100347.00;;;;345757;28;90491;-91
2021/09/28 00:37:38;;;;;;;;;;;17.20;94.00;17.40;100342.00;;;;344719;28;83394;-93
2021/09/28 00:37:50;;;;;;;;;;;17.20;93.80;17.50;100346.00;;;;338676;28;91918;-93
2021/09/28 00:38:01;;;;;;;;;;;17.20;93.80;17.40;100352.00;;;;341872;28;83473;-92
2021/09/28 00:38:13;;;;;;;;;;;17.20;93.80;17.30;100354.00;;;;347076;28;91337;-93
2021/09/28 00:38:25;;;;;;;;;;;17.20;93.80;17.40;100350.00;;;;347070;28;83437;-93
2021/09/28 00:38:37;;;;;;;;;;;17.20;93.80;17.40;100345.00;;;;343940;28;92265;-92
2021/09/28 00:38:50;;;;;;;;;;;17.20;93.80;17.50;100343.00;;;;337791;28;83307;-91
2021/09/28 00:39:02;;;;;;;;;;;17.20;93.80;17.50;100347.00;;;;337323;28;91361;-92
2021/09/28 00:39:14;;;;;;;;;;;17.20;93.90;17.50;100344.00;;;;339180;28;83461;-93
2021/09/28 00:39:26;;;;;;;;;;;17.20;93.90;17.50;100342.00;;;;338870;28;90650;-92
2021/09/28 00:39:38;;;;;;;;;;;17.30;93.90;17.40;100340.00;;;;346918;28;82580;-93
2021/09/28 00:39:49;;;;;;;;;;;17.20;93.80;17.40;100351.00;;;;343743;28;91407;-94
2021/09/28 00:40:01;;;;;;;;;;;17.20;93.80;17.40;100343.00;;;;339221;28;83765;-92
2021/09/28 00:40:13;;;;;;;;;;;17.20;93.80;17.40;100346.00;;;;338791;28;91556;-91
2021/09/28 00:40:25;;;;;;;;;;;17.20;93.90;17.40;100349.00;;;;340535;28;83439;-92
2021/09/28 00:40:37;;;;;;;;;;;17.20;93.90;17.40;100342.00;;;;344342;28;91093;-92
2021/09/28 00:40:48;;;;;;;;;;;17.20;93.90;17.40;100343.00;;;;345444;28;82621;-92
2021/09/28 00:41:00;;;;;;;;;;;17.20;94.00;17.40;100338.00;;;;338938;28;88729;-92
2021/09/28 00:41:12;;;;;;;;;;;17.20;94.00;17.30;100347.00;;;;340508;28;82543;-93
2021/09/28 00:41:24;;;;;;;;;;;17.20;94.00;17.40;100344.00;;;;337543;28;90346;-92
2021/09/28 00:41:36;;;;;;;;;;;17.20;94.00;17.40;100350.00;;;;343908;28;83604;-92
2021/09/28 00:41:48;;;;;;;;;;;17.20;94.00;17.40;100345.00;;;;340435;28;91273;-91
2021/09/28 00:42:00;;;;;;;;;;;17.20;94.00;17.40;100346.00;;;;342536;28;82614;-92
2021/09/28 00:42:12;;;;;;;;;;;17.20;94.00;17.40;100344.00;;;;340310;28;90486;-92
2021/09/28 00:42:23;;;;;;;;;;;17.20;94.00;17.40;100348.00;;;;340488;28;83323;-89
2021/09/28 00:42:36;;;;;;;;;;;17.20;94.00;17.40;100350.00;;;;337335;28;92102;-92
2021/09/28 00:42:47;;;;;;;;;;;17.20;94.00;17.40;100348.00;;;;346544;28;83428;-91
2021/09/28 00:42:59;;;;;;;;;;;17.20;94.00;17.30;100344.00;;;;345773;28;91591;-92
2021/09/28 00:43:11;;;;;;;;;;;17.20;94.00;17.30;100342.00;;;;339135;28;83470;-92
2021/09/28 00:43:23;;;;;;;;;;;17.20;94.00;17.40;100350.00;;;;338867;28;91238;-92
2021/09/28 00:43:48;;;;;;;;;;;17.20;93.90;17.30;100348.00;;;;340649;28;82557;-92
2021/09/28 00:44:00;;;;;;;;;;;17.10;93.90;17.40;100347.00;;;;338733;28;89674;-91
2021/09/28 00:44:11;;;;;;;;;;;17.20;93.90;17.40;100342.00;;;;339328;28;82611;-93
2021/09/28 00:44:37;;;;;;;;;;;17.10;93.90;17.30;100341.00;;;;340205;28;91260;-92
2021/09/28 00:44:50;;;;;;;;;;;17.10;94.00;17.40;100345.00;;;;337862;28;82576;-92
2021/09/28 00:45:01;;;;;;;;;;;17.10;94.00;17.40;100352.00;;;;337317;28;91501;-91
2021/09/28 00:45:13;;;;;;;;;;;17.10;94.00;17.40;100339.00;;;;339343;28;82446;-92
2021/09/28 00:45:25;;;;;;;;;;;17.10;94.10;17.30;100344.00;;;;337479;28;90883;-92
2021/09/28 00:45:37;;;;;;;;;;;17.10;94.10;17.30;100334.00;;;;337898;28;83558;-92
2021/09/28 00:45:48;;;;;;;;;;;17.10;94.10;17.30;100340.00;;;;337295;28;91204;-92
2021/09/28 00:46:00;;;;;;;;;;;17.10;94.20;17.40;100339.00;;;;339348;28;83362;-92
2021/09/28 00:46:12;;;;;;;;;;;17.10;94.20;17.40;100341.00;;;;339968;28;91341;-93
2021/09/28 00:46:24;;;;;;;;;;;17.10;94.20;17.40;100344.00;;;;339101;28;83411;-93
2021/09/28 00:46:36;;;;;;;;;;;17.10;94.20;17.40;100338.00;;;;344694;28;91642;-91
2021/09/28 00:46:48;;;;;;;;;;;17.10;94.10;17.40;100335.00;;;;344891;28;83366;-92
2021/09/28 00:47:00;;;;;;;;;;;17.10;94.10;17.40;100339.00;;;;338746;28;92758;-92
2021/09/28 00:47:13;;;;;;;;;;;17.10;94.30;17.40;100340.00;;;;337837;28;83480;-91
2021/09/28 00:47:25;;;;;;;;;;;17.10;94.20;17.40;100331.00;;;;337309;28;91866;-92
2021/09/28 00:47:37;;;;;;;;;;;17.10;94.10;17.40;100338.00;;;;337953;28;83412;-92
2021/09/28 00:47:49;;;;;;;;;;;17.10;94.10;17.40;100335.00;;;;338781;28;91631;-92
2021/09/28 00:48:01;;;;;;;;;;;17.10;94.10;17.20;100335.00;;;;337950;28;83436;-92
2021/09/28 00:48:13;;;;;;;;;;;17.10;94.10;17.30;100334.00;;;;337568;28;90687;-92
2021/09/28 00:48:25;;;;;;;;;;;17.10;94.10;17.40;100334.00;;;;339110;28;83472;-92
2021/09/28 00:48:37;;;;;;;;;;;17.10;94.20;17.40;100321.00;;;;338827;28;90517;-92
2021/09/28 00:48:49;;;;;;;;;;;17.10;94.10;17.20;100325.00;;;;339203;28;83520;-92
2021/09/28 00:49:01;;;;;;;;;;;17.10;94.10;17.20;100333.00;;;;338844;28;92207;-91
2021/09/28 00:49:13;;;;;;;;;;;17.10;94.20;17.30;100332.00;;;;343436;28;83405;-93
2021/09/28 00:49:25;;;;;;;;;;;17.10;94.10;17.30;100334.00;;;;348712;27;91163;-92
2021/09/28 00:49:40;;;;;;;;;;;17.10;94.10;17.30;100335.00;;;;339197;28;83437;-92
2021/09/28 00:49:52;;;;;;;;;;;17.10;94.10;17.30;100332.00;;;;347096;28;91505;-93
2021/09/28 00:50:04;;;;;;;;;;;17.10;94.20;17.40;100331.00;;;;348333;27;82617;-92
2021/09/28 00:50:16;;;;;;;;;;;17.10;94.20;17.40;100326.00;;;;340101;28;91350;-92
2021/09/28 00:50:28;;;;;;;;;;;17.10;94.20;17.30;100324.00;;;;341865;28;82584;-92
2021/09/28 00:50:40;;;;;;;;;;;17.10;94.20;17.40;100335.00;;;;338895;28;90157;-92
2021/09/28 00:50:52;;;;;;;;;;;17.10;94.10;17.30;100330.00;;;;340528;28;83398;-93
2021/09/28 00:51:04;;;;;;;;;;;17.10;94.10;17.30;100321.00;;;;340145;28;92216;-92
2021/09/28 00:51:15;;;;;;;;;;;17.10;94.20;17.30;100323.00;;;;341865;28;83473;-92
2021/09/28 00:51:27;;;;;;;;;;;17.10;94.20;17.30;100326.00;;;;337565;28;90002;-93
2021/09/28 00:51:39;;;;;;;;;;;17.10;94.20;17.30;100332.00;;;;338003;28;82433;-90
2021/09/28 00:51:51;;;;;;;;;;;17.10;94.20;17.30;100332.00;;;;337406;28;91206;-92
2021/09/28 00:52:03;;;;;;;;;;;17.10;94.10;17.20;100322.00;;;;342028;28;83408;-92
2021/09/28 00:52:18;;;;;;;;;;;17.10;94.20;17.10;100325.00;;;;342317;28;91592;-93
2021/09/28 00:52:31;;;;;;;;;;;17.00;94.10;17.20;100326.00;;;;344831;28;83517;-93
2021/09/28 00:52:44;;;;;;;;;;;17.00;94.10;17.20;100326.00;;;;345910;28;90386;-92
2021/09/28 00:52:56;;;;;;;;;;;17.00;94.20;17.20;100330.00;;;;344930;28;82505;-91
2021/09/28 00:53:07;;;;;;;;;;;17.00;94.20;17.20;100323.00;;;;344300;28;92594;-92
2021/09/28 00:53:19;;;;;;;;;;;17.00;94.10;17.20;100320.00;;;;347687;28;83814;-92
2021/09/28 00:53:31;;;;;;;;;;;17.10;94.10;17.20;100335.00;;;;338357;28;90449;-92
2021/09/28 00:53:43;;;;;;;;;;;17.10;94.20;17.10;100326.00;;;;339208;28;83529;-92
2021/09/28 00:53:55;;;;;;;;;;;17.10;94.10;17.10;100335.00;;;;340155;28;91572;-91
2021/09/28 00:54:07;;;;;;;;;;;17.00;94.20;17.20;100333.00;;;;346229;28;83342;-91
2021/09/28 00:54:19;;;;;;;;;;;17.00;94.10;17.20;100324.00;;;;345898;28;90539;-92
2021/09/28 00:54:31;;;;;;;;;;;17.00;94.10;17.20;100326.00;;;;347430;28;83396;-91
2021/09/28 00:54:43;;;;;;;;;;;17.00;94.20;17.20;100326.00;;;;347156;28;90530;-92
2021/09/28 00:54:55;;;;;;;;;;;17.00;94.20;17.20;100321.00;;;;348998;27;83443;-92
2021/09/28 00:55:07;;;;;;;;;;;17.00;94.10;17.20;100324.00;;;;347042;28;92583;-92
2021/09/28 00:55:19;;;;;;;;;;;17.00;94.10;17.20;100322.00;;;;343416;28;83548;-92
2021/09/28 00:55:31;;;;;;;;;;;17.00;94.00;17.20;100335.00;;;;345808;28;90402;-92
2021/09/28 00:55:42;;;;;;;;;;;17.00;94.10;17.20;100324.00;;;;346229;28;83281;-92
2021/09/28 00:55:54;;;;;;;;;;;17.00;94.10;17.20;100325.00;;;;344523;28;90464;-92
2021/09/28 00:56:10;;;;;;;;;;;17.00;94.10;17.10;100323.00;;;;347622;28;83387;-92
2021/09/28 00:56:22;;;;;;;;;;;17.00;94.10;17.00;100326.00;;;;344374;28;90291;-92
2021/09/28 00:56:34;;;;;;;;;;;17.00;94.10;17.00;100330.00;;;;345768;28;82635;-91
2021/09/28 00:56:46;;;;;;;;;;;17.00;94.10;17.10;100322.00;;;;340180;28;91532;-91
2021/09/28 00:56:57;;;;;;;;;;;17.00;94.10;17.20;100330.00;;;;339261;28;83318;-92
2021/09/28 00:57:09;;;;;;;;;;;17.00;94.10;17.20;100323.00;;;;338846;28;91106;-92
2021/09/28 00:57:21;;;;;;;;;;;17.00;94.10;17.10;100326.00;;;;339292;28;83350;-92
2021/09/28 00:57:33;;;;;;;;;;;17.00;94.20;17.10;100323.00;;;;337416;28;91678;-92
2021/09/28 00:57:45;;;;;;;;;;;17.00;94.20;17.10;100324.00;;;;337975;28;83457;-92
2021/09/28 00:57:57;;;;;;;;;;;17.00;94.20;17.20;100330.00;;;;338699;28;90761;-92
2021/09/28 00:58:09;;;;;;;;;;;17.00;94.20;17.20;100326.00;;;;340596;28;82531;-92
2021/09/28 00:58:21;;;;;;;;;;;17.00;94.20;17.10;100325.00;;;;341397;28;91474;-92
2021/09/28 00:58:33;;;;;;;;;;;17.00;94.20;17.20;100325.00;;;;341891;28;83545;-92
2021/09/28 00:58:45;;;;;;;;;;;17.00;94.20;17.20;100326.00;;;;337530;28;91307;-92
2021/09/28 00:59:00;;;;;;;;;;;17.00;94.20;17.10;100318.00;;;;339264;28;82522;-92
2021/09/28 00:59:12;;;;;;;;;;;17.00;94.20;17.00;100324.00;;;;338733;28;92258;-92
2021/09/28 00:59:24;;;;;;;;;;;17.00;94.20;17.10;100323.00;;;;337740;28;83493;-92